sensor_id;sensor_type;location;lat;lon;timestamp;P1;durP1;ratioP1;P2;durP2;ratioP2
3207;SDS011;1616;52.394;9.756;2023-05-07T00:00:37;24.93;;;19.60;;
3207;SDS011;1616;52.394;9.756;2023-05-07T00:03:03;25.47;;;20.23;;
3207;SDS011;1616;52.394;9.756;2023-05-07T00:05:29;22.43;;;18.27;;
3207;SDS011;1616;52.394;9.756;2023-05-07T00:07:55;26.07;;;20.57;;
3207;SDS011;1616;52.394;9.756;2023-05-07T00:10:20;24.80;;;19.03;;
3207;SDS011;1616;52.394;9.756;2023-05-07T00:12:46;29.97;;;19.90;;
3207;SDS011;1616;52.394;9.756;2023-05-07T00:15:11;24.87;;;19.57;;
3207;SDS011;1616;52.394;9.756;2023-05-07T00:17:37;29.27;;;20.50;;
3207;SDS011;1616;52.394;9.756;2023-05-07T00:20:04;23.67;;;19.40;;
3207;SDS011;1616;52.394;9.756;2023-05-07T00:22:30;24.13;;;18.80;;
3207;SDS011;1616;52.394;9.756;2023-05-07T00:24:57;26.93;;;19.90;;
3207;SDS011;1616;52.394;9.756;2023-05-07T00:27:24;24.50;;;18.40;;
3207;SDS011;1616;52.394;9.756;2023-05-07T00:29:50;23.47;;;20.30;;
3207;SDS011;1616;52.394;9.756;2023-05-07T00:32:16;30.33;;;18.00;;
3207;SDS011;1616;52.394;9.756;2023-05-07T00:34:42;26.73;;;19.90;;
3207;SDS011;1616;52.394;9.756;2023-05-07T00:37:08;28.77;;;20.37;;
3207;SDS011;1616;52.394;9.756;2023-05-07T00:39:34;26.47;;;19.93;;
3207;SDS011;1616;52.394;9.756;2023-05-07T00:42:00;30.33;;;20.60;;
3207;SDS011;1616;52.394;9.756;2023-05-07T00:44:27;28.93;;;19.80;;
3207;SDS011;1616;52.394;9.756;2023-05-07T00:46:53;28.03;;;20.57;;
3207;SDS011;1616;52.394;9.756;2023-05-07T00:49:19;28.17;;;20.00;;
3207;SDS011;1616;52.394;9.756;2023-05-07T00:51:45;26.03;;;20.23;;
3207;SDS011;1616;52.394;9.756;2023-05-07T00:54:12;31.57;;;22.10;;
3207;SDS011;1616;52.394;9.756;2023-05-07T00:56:38;27.40;;;19.80;;
3207;SDS011;1616;52.394;9.756;2023-05-07T00:59:05;28.20;;;20.00;;
3207;SDS011;1616;52.394;9.756;2023-05-07T01:01:31;27.00;;;20.23;;
3207;SDS011;1616;52.394;9.756;2023-05-07T01:03:57;31.23;;;19.70;;
3207;SDS011;1616;52.394;9.756;2023-05-07T01:06:23;29.73;;;21.80;;
3207;SDS011;1616;52.394;9.756;2023-05-07T01:08:50;30.57;;;20.97;;
3207;SDS011;1616;52.394;9.756;2023-05-07T01:11:18;28.23;;;20.43;;
3207;SDS011;1616;52.394;9.756;2023-05-07T01:13:45;32.07;;;22.67;;
3207;SDS011;1616;52.394;9.756;2023-05-07T01:16:12;34.90;;;22.93;;
3207;SDS011;1616;52.394;9.756;2023-05-07T01:18:37;31.00;;;22.77;;
3207;SDS011;1616;52.394;9.756;2023-05-07T01:21:04;32.07;;;22.47;;
3207;SDS011;1616;52.394;9.756;2023-05-07T01:23:31;35.73;;;22.17;;
3207;SDS011;1616;52.394;9.756;2023-05-07T01:25:58;30.40;;;22.57;;
3207;SDS011;1616;52.394;9.756;2023-05-07T01:28:24;31.23;;;22.53;;
3207;SDS011;1616;52.394;9.756;2023-05-07T01:30:53;36.63;;;22.67;;
3207;SDS011;1616;52.394;9.756;2023-05-07T01:33:22;32.07;;;22.13;;
3207;SDS011;1616;52.394;9.756;2023-05-07T01:35:50;35.67;;;23.03;;
3207;SDS011;1616;52.394;9.756;2023-05-07T01:38:18;31.20;;;21.60;;
3207;SDS011;1616;52.394;9.756;2023-05-07T01:40:46;37.60;;;23.20;;
3207;SDS011;1616;52.394;9.756;2023-05-07T01:43:12;38.17;;;23.10;;
3207;SDS011;1616;52.394;9.756;2023-05-07T01:45:38;31.70;;;21.60;;
3207;SDS011;1616;52.394;9.756;2023-05-07T01:48:05;36.83;;;22.80;;
3207;SDS011;1616;52.394;9.756;2023-05-07T01:50:31;37.43;;;23.30;;
3207;SDS011;1616;52.394;9.756;2023-05-07T01:52:58;32.23;;;22.80;;
3207;SDS011;1616;52.394;9.756;2023-05-07T01:55:24;30.43;;;20.57;;
3207;SDS011;1616;52.394;9.756;2023-05-07T01:57:50;34.17;;;22.47;;
3207;SDS011;1616;52.394;9.756;2023-05-07T02:00:15;34.30;;;23.53;;
3207;SDS011;1616;52.394;9.756;2023-05-07T02:02:42;30.20;;;19.90;;
3207;SDS011;1616;52.394;9.756;2023-05-07T02:05:08;29.17;;;19.63;;
3207;SDS011;1616;52.394;9.756;2023-05-07T02:07:34;30.37;;;19.20;;
3207;SDS011;1616;52.394;9.756;2023-05-07T02:10:00;25.33;;;18.90;;
3207;SDS011;1616;52.394;9.756;2023-05-07T02:12:26;24.10;;;17.50;;
3207;SDS011;1616;52.394;9.756;2023-05-07T02:14:52;24.60;;;17.10;;
3207;SDS011;1616;52.394;9.756;2023-05-07T02:17:18;20.53;;;15.03;;
3207;SDS011;1616;52.394;9.756;2023-05-07T02:19:44;23.87;;;16.17;;
3207;SDS011;1616;52.394;9.756;2023-05-07T02:22:09;17.37;;;13.50;;
3207;SDS011;1616;52.394;9.756;2023-05-07T02:24:35;21.70;;;13.33;;
3207;SDS011;1616;52.394;9.756;2023-05-07T02:27:01;14.17;;;12.13;;
3207;SDS011;1616;52.394;9.756;2023-05-07T02:29:28;15.50;;;13.10;;
3207;SDS011;1616;52.394;9.756;2023-05-07T02:31:54;13.23;;;11.10;;
3207;SDS011;1616;52.394;9.756;2023-05-07T02:34:20;12.53;;;11.13;;
3207;SDS011;1616;52.394;9.756;2023-05-07T02:36:46;11.30;;;9.80;;
3207;SDS011;1616;52.394;9.756;2023-05-07T02:39:12;17.30;;;11.07;;
3207;SDS011;1616;52.394;9.756;2023-05-07T02:41:38;15.73;;;10.73;;
3207;SDS011;1616;52.394;9.756;2023-05-07T02:44:04;10.70;;;9.60;;
3207;SDS011;1616;52.394;9.756;2023-05-07T02:46:30;13.47;;;11.07;;
3207;SDS011;1616;52.394;9.756;2023-05-07T02:48:56;12.80;;;11.43;;
3207;SDS011;1616;52.394;9.756;2023-05-07T02:51:22;9.70;;;8.60;;
3207;SDS011;1616;52.394;9.756;2023-05-07T02:53:48;13.03;;;10.87;;
3207;SDS011;1616;52.394;9.756;2023-05-07T02:56:13;11.43;;;10.13;;
3207;SDS011;1616;52.394;9.756;2023-05-07T02:58:39;9.90;;;8.90;;
3207;SDS011;1616;52.394;9.756;2023-05-07T03:01:05;16.10;;;8.40;;
3207;SDS011;1616;52.394;9.756;2023-05-07T03:03:31;12.13;;;10.90;;
3207;SDS011;1616;52.394;9.756;2023-05-07T03:05:57;11.23;;;10.10;;
3207;SDS011;1616;52.394;9.756;2023-05-07T03:08:22;11.63;;;9.67;;
3207;SDS011;1616;52.394;9.756;2023-05-07T03:10:48;16.40;;;10.77;;
3207;SDS011;1616;52.394;9.756;2023-05-07T03:13:14;10.47;;;9.50;;
3207;SDS011;1616;52.394;9.756;2023-05-07T03:15:39;10.53;;;9.23;;
3207;SDS011;1616;52.394;9.756;2023-05-07T03:18:05;12.70;;;10.17;;
3207;SDS011;1616;52.394;9.756;2023-05-07T03:20:30;11.20;;;10.03;;
3207;SDS011;1616;52.394;9.756;2023-05-07T03:22:56;12.20;;;11.00;;
3207;SDS011;1616;52.394;9.756;2023-05-07T03:25:22;11.43;;;9.23;;
3207;SDS011;1616;52.394;9.756;2023-05-07T03:27:48;14.00;;;12.00;;
3207;SDS011;1616;52.394;9.756;2023-05-07T03:30:15;14.50;;;12.47;;
3207;SDS011;1616;52.394;9.756;2023-05-07T03:32:40;12.77;;;10.40;;
3207;SDS011;1616;52.394;9.756;2023-05-07T03:35:06;14.47;;;9.87;;
3207;SDS011;1616;52.394;9.756;2023-05-07T03:37:32;12.90;;;10.53;;
3207;SDS011;1616;52.394;9.756;2023-05-07T03:39:58;11.00;;;9.90;;
3207;SDS011;1616;52.394;9.756;2023-05-07T03:42:23;11.30;;;9.70;;
3207;SDS011;1616;52.394;9.756;2023-05-07T03:44:50;12.83;;;11.00;;
3207;SDS011;1616;52.394;9.756;2023-05-07T03:47:16;11.93;;;10.43;;
3207;SDS011;1616;52.394;9.756;2023-05-07T03:49:41;11.60;;;10.00;;
3207;SDS011;1616;52.394;9.756;2023-05-07T03:52:07;10.67;;;9.57;;
3207;SDS011;1616;52.394;9.756;2023-05-07T03:54:33;9.93;;;9.03;;
3207;SDS011;1616;52.394;9.756;2023-05-07T03:56:58;12.23;;;9.90;;
3207;SDS011;1616;52.394;9.756;2023-05-07T03:59:24;11.37;;;10.37;;
3207;SDS011;1616;52.394;9.756;2023-05-07T04:01:50;11.30;;;9.40;;
3207;SDS011;1616;52.394;9.756;2023-05-07T04:04:16;10.30;;;9.20;;
3207;SDS011;1616;52.394;9.756;2023-05-07T04:06:41;9.63;;;8.70;;
3207;SDS011;1616;52.394;9.756;2023-05-07T04:09:07;8.77;;;8.07;;
3207;SDS011;1616;52.394;9.756;2023-05-07T04:11:33;9.97;;;8.60;;
3207;SDS011;1616;52.394;9.756;2023-05-07T04:13:59;10.20;;;9.20;;
3207;SDS011;1616;52.394;9.756;2023-05-07T04:16:25;9.83;;;8.93;;
3207;SDS011;1616;52.394;9.756;2023-05-07T04:18:50;10.30;;;9.20;;
3207;SDS011;1616;52.394;9.756;2023-05-07T04:21:16;10.07;;;9.07;;
3207;SDS011;1616;52.394;9.756;2023-05-07T04:23:43;9.30;;;8.50;;
3207;SDS011;1616;52.394;9.756;2023-05-07T04:26:09;9.80;;;9.10;;
3207;SDS011;1616;52.394;9.756;2023-05-07T04:28:35;10.20;;;9.30;;
3207;SDS011;1616;52.394;9.756;2023-05-07T04:31:02;11.23;;;9.93;;
3207;SDS011;1616;52.394;9.756;2023-05-07T04:33:28;10.40;;;9.50;;
3207;SDS011;1616;52.394;9.756;2023-05-07T04:35:53;11.43;;;10.37;;
3207;SDS011;1616;52.394;9.756;2023-05-07T04:38:19;11.37;;;10.17;;
3207;SDS011;1616;52.394;9.756;2023-05-07T04:40:45;11.43;;;10.47;;
3207;SDS011;1616;52.394;9.756;2023-05-07T04:43:12;10.77;;;9.77;;
3207;SDS011;1616;52.394;9.756;2023-05-07T04:45:38;11.93;;;9.83;;
3207;SDS011;1616;52.394;9.756;2023-05-07T04:48:06;11.97;;;10.33;;
3207;SDS011;1616;52.394;9.756;2023-05-07T04:50:32;12.00;;;10.80;;
3207;SDS011;1616;52.394;9.756;2023-05-07T04:52:58;13.43;;;12.03;;
3207;SDS011;1616;52.394;9.756;2023-05-07T04:55:24;11.47;;;10.30;;
3207;SDS011;1616;52.394;9.756;2023-05-07T04:57:50;9.83;;;8.93;;
3207;SDS011;1616;52.394;9.756;2023-05-07T05:00:15;10.27;;;9.27;;
3207;SDS011;1616;52.394;9.756;2023-05-07T05:02:41;9.63;;;8.83;;
3207;SDS011;1616;52.394;9.756;2023-05-07T05:05:07;10.60;;;9.43;;
3207;SDS011;1616;52.394;9.756;2023-05-07T05:07:33;9.43;;;8.53;;
3207;SDS011;1616;52.394;9.756;2023-05-07T05:09:58;10.60;;;9.60;;
3207;SDS011;1616;52.394;9.756;2023-05-07T05:12:24;11.17;;;9.23;;
3207;SDS011;1616;52.394;9.756;2023-05-07T05:14:50;9.40;;;8.67;;
3207;SDS011;1616;52.394;9.756;2023-05-07T05:17:16;9.57;;;8.77;;
3207;SDS011;1616;52.394;9.756;2023-05-07T05:19:41;12.60;;;8.67;;
3207;SDS011;1616;52.394;9.756;2023-05-07T05:22:07;9.90;;;8.97;;
3207;SDS011;1616;52.394;9.756;2023-05-07T05:24:32;9.90;;;8.93;;
3207;SDS011;1616;52.394;9.756;2023-05-07T05:26:58;8.37;;;7.57;;
3207;SDS011;1616;52.394;9.756;2023-05-07T05:29:26;9.87;;;8.97;;
3207;SDS011;1616;52.394;9.756;2023-05-07T05:31:52;8.87;;;8.13;;
3207;SDS011;1616;52.394;9.756;2023-05-07T05:34:17;8.93;;;7.63;;
3207;SDS011;1616;52.394;9.756;2023-05-07T05:36:44;17.87;;;8.87;;
3207;SDS011;1616;52.394;9.756;2023-05-07T05:39:10;12.00;;;10.10;;
3207;SDS011;1616;52.394;9.756;2023-05-07T05:41:37;13.37;;;9.47;;
3207;SDS011;1616;52.394;9.756;2023-05-07T05:44:03;11.10;;;10.00;;
3207;SDS011;1616;52.394;9.756;2023-05-07T05:46:28;8.07;;;7.37;;
3207;SDS011;1616;52.394;9.756;2023-05-07T05:48:55;9.23;;;8.30;;
3207;SDS011;1616;52.394;9.756;2023-05-07T05:51:21;8.40;;;7.60;;
3207;SDS011;1616;52.394;9.756;2023-05-07T05:53:47;7.93;;;7.07;;
3207;SDS011;1616;52.394;9.756;2023-05-07T05:56:12;7.60;;;7.00;;
3207;SDS011;1616;52.394;9.756;2023-05-07T05:58:38;7.03;;;6.50;;
3207;SDS011;1616;52.394;9.756;2023-05-07T06:01:03;7.57;;;7.07;;
3207;SDS011;1616;52.394;9.756;2023-05-07T06:03:30;7.43;;;6.80;;
3207;SDS011;1616;52.394;9.756;2023-05-07T06:05:57;9.63;;;7.37;;
3207;SDS011;1616;52.394;9.756;2023-05-07T06:08:23;8.47;;;7.67;;
3207;SDS011;1616;52.394;9.756;2023-05-07T06:10:49;7.80;;;7.30;;
3207;SDS011;1616;52.394;9.756;2023-05-07T06:13:15;7.03;;;6.50;;
3207;SDS011;1616;52.394;9.756;2023-05-07T06:15:42;7.47;;;6.93;;
3207;SDS011;1616;52.394;9.756;2023-05-07T06:18:07;7.43;;;6.93;;
3207;SDS011;1616;52.394;9.756;2023-05-07T06:20:33;7.53;;;7.00;;
3207;SDS011;1616;52.394;9.756;2023-05-07T06:22:59;7.83;;;7.30;;
3207;SDS011;1616;52.394;9.756;2023-05-07T06:25:25;7.50;;;6.97;;
3207;SDS011;1616;52.394;9.756;2023-05-07T06:27:50;8.87;;;8.20;;
3207;SDS011;1616;52.394;9.756;2023-05-07T06:30:16;8.27;;;7.50;;
3207;SDS011;1616;52.394;9.756;2023-05-07T06:32:41;7.20;;;6.70;;
3207;SDS011;1616;52.394;9.756;2023-05-07T06:35:07;7.83;;;7.33;;
3207;SDS011;1616;52.394;9.756;2023-05-07T06:37:33;7.97;;;7.40;;
3207;SDS011;1616;52.394;9.756;2023-05-07T06:39:58;7.63;;;7.10;;
3207;SDS011;1616;52.394;9.756;2023-05-07T06:42:24;7.23;;;6.73;;
3207;SDS011;1616;52.394;9.756;2023-05-07T06:44:50;7.87;;;7.30;;
3207;SDS011;1616;52.394;9.756;2023-05-07T06:47:16;7.30;;;6.90;;
3207;SDS011;1616;52.394;9.756;2023-05-07T06:49:41;7.63;;;7.13;;
3207;SDS011;1616;52.394;9.756;2023-05-07T06:52:07;7.40;;;6.90;;
3207;SDS011;1616;52.394;9.756;2023-05-07T06:54:33;10.27;;;8.40;;
3207;SDS011;1616;52.394;9.756;2023-05-07T06:56:58;9.10;;;8.50;;
3207;SDS011;1616;52.394;9.756;2023-05-07T06:59:24;10.40;;;9.50;;
3207;SDS011;1616;52.394;9.756;2023-05-07T07:01:49;9.93;;;9.33;;
3207;SDS011;1616;52.394;9.756;2023-05-07T07:04:15;9.67;;;9.13;;
3207;SDS011;1616;52.394;9.756;2023-05-07T07:06:41;11.43;;;10.60;;
3207;SDS011;1616;52.394;9.756;2023-05-07T07:09:07;10.87;;;9.87;;
3207;SDS011;1616;52.394;9.756;2023-05-07T07:11:32;11.53;;;10.37;;
3207;SDS011;1616;52.394;9.756;2023-05-07T07:13:58;12.87;;;11.77;;
3207;SDS011;1616;52.394;9.756;2023-05-07T07:16:24;12.20;;;11.13;;
3207;SDS011;1616;52.394;9.756;2023-05-07T07:18:49;12.13;;;11.23;;
3207;SDS011;1616;52.394;9.756;2023-05-07T07:21:15;11.33;;;10.50;;
3207;SDS011;1616;52.394;9.756;2023-05-07T07:23:41;12.83;;;11.80;;
3207;SDS011;1616;52.394;9.756;2023-05-07T07:26:07;11.93;;;11.07;;
3207;SDS011;1616;52.394;9.756;2023-05-07T07:28:33;12.07;;;11.07;;
3207;SDS011;1616;52.394;9.756;2023-05-07T07:30:59;11.80;;;10.90;;
3207;SDS011;1616;52.394;9.756;2023-05-07T07:33:24;12.30;;;11.33;;
3207;SDS011;1616;52.394;9.756;2023-05-07T07:35:50;11.63;;;10.73;;
3207;SDS011;1616;52.394;9.756;2023-05-07T07:38:16;12.17;;;11.17;;
3207;SDS011;1616;52.394;9.756;2023-05-07T07:40:41;13.13;;;12.07;;
3207;SDS011;1616;52.394;9.756;2023-05-07T07:43:08;11.07;;;10.23;;
3207;SDS011;1616;52.394;9.756;2023-05-07T07:45:34;16.60;;;11.77;;
3207;SDS011;1616;52.394;9.756;2023-05-07T07:48:00;11.33;;;10.43;;
3207;SDS011;1616;52.394;9.756;2023-05-07T07:50:26;9.97;;;9.27;;
3207;SDS011;1616;52.394;9.756;2023-05-07T07:52:51;9.97;;;9.17;;
3207;SDS011;1616;52.394;9.756;2023-05-07T07:55:19;8.90;;;8.30;;
3207;SDS011;1616;52.394;9.756;2023-05-07T07:57:49;9.87;;;9.27;;
3207;SDS011;1616;52.394;9.756;2023-05-07T08:00:15;9.93;;;8.97;;
3207;SDS011;1616;52.394;9.756;2023-05-07T08:02:41;9.67;;;9.07;;
3207;SDS011;1616;52.394;9.756;2023-05-07T08:05:07;8.40;;;7.77;;
3207;SDS011;1616;52.394;9.756;2023-05-07T08:07:33;8.90;;;8.40;;
3207;SDS011;1616;52.394;9.756;2023-05-07T08:10:00;8.43;;;7.93;;
3207;SDS011;1616;52.394;9.756;2023-05-07T08:12:25;9.87;;;9.27;;
3207;SDS011;1616;52.394;9.756;2023-05-07T08:14:51;6.73;;;6.23;;
3207;SDS011;1616;52.394;9.756;2023-05-07T08:17:16;8.93;;;8.37;;
3207;SDS011;1616;52.394;9.756;2023-05-07T08:19:42;7.20;;;6.80;;
3207;SDS011;1616;52.394;9.756;2023-05-07T08:22:09;7.70;;;7.30;;
3207;SDS011;1616;52.394;9.756;2023-05-07T08:24:35;7.97;;;7.57;;
3207;SDS011;1616;52.394;9.756;2023-05-07T08:27:02;8.60;;;8.20;;
3207;SDS011;1616;52.394;9.756;2023-05-07T08:29:27;8.63;;;8.23;;
3207;SDS011;1616;52.394;9.756;2023-05-07T08:31:53;8.63;;;7.80;;
3207;SDS011;1616;52.394;9.756;2023-05-07T08:34:19;9.07;;;8.37;;
3207;SDS011;1616;52.394;9.756;2023-05-07T08:36:44;8.23;;;7.67;;
3207;SDS011;1616;52.394;9.756;2023-05-07T08:39:13;7.27;;;6.93;;
3207;SDS011;1616;52.394;9.756;2023-05-07T08:41:40;9.77;;;9.17;;
3207;SDS011;1616;52.394;9.756;2023-05-07T08:44:11;7.63;;;7.23;;
3207;SDS011;1616;52.394;9.756;2023-05-07T08:46:39;8.43;;;7.60;;
3207;SDS011;1616;52.394;9.756;2023-05-07T08:49:06;8.37;;;7.87;;
3207;SDS011;1616;52.394;9.756;2023-05-07T08:51:33;8.90;;;8.30;;
3207;SDS011;1616;52.394;9.756;2023-05-07T08:53:59;8.40;;;7.90;;
3207;SDS011;1616;52.394;9.756;2023-05-07T08:56:26;7.63;;;7.13;;
3207;SDS011;1616;52.394;9.756;2023-05-07T08:58:52;8.90;;;8.40;;
3207;SDS011;1616;52.394;9.756;2023-05-07T09:01:21;10.33;;;9.30;;
3207;SDS011;1616;52.394;9.756;2023-05-07T09:03:47;8.33;;;7.93;;
3207;SDS011;1616;52.394;9.756;2023-05-07T09:06:14;8.60;;;8.10;;
3207;SDS011;1616;52.394;9.756;2023-05-07T09:08:41;9.33;;;8.73;;
3207;SDS011;1616;52.394;9.756;2023-05-07T09:11:14;9.87;;;9.10;;
3207;SDS011;1616;52.394;9.756;2023-05-07T09:13:40;9.03;;;8.40;;
3207;SDS011;1616;52.394;9.756;2023-05-07T09:16:10;8.17;;;7.67;;
3207;SDS011;1616;52.394;9.756;2023-05-07T09:18:40;8.87;;;8.30;;
3207;SDS011;1616;52.394;9.756;2023-05-07T09:21:09;9.73;;;9.10;;
3207;SDS011;1616;52.394;9.756;2023-05-07T09:23:35;9.90;;;9.00;;
3207;SDS011;1616;52.394;9.756;2023-05-07T09:26:01;10.33;;;9.73;;
3207;SDS011;1616;52.394;9.756;2023-05-07T09:28:27;9.47;;;8.87;;
3207;SDS011;1616;52.394;9.756;2023-05-07T09:30:52;9.20;;;8.60;;
3207;SDS011;1616;52.394;9.756;2023-05-07T09:33:18;9.07;;;8.33;;
3207;SDS011;1616;52.394;9.756;2023-05-07T09:35:43;9.23;;;8.53;;
3207;SDS011;1616;52.394;9.756;2023-05-07T09:38:09;8.27;;;7.87;;
3207;SDS011;1616;52.394;9.756;2023-05-07T09:40:36;10.33;;;9.63;;
3207;SDS011;1616;52.394;9.756;2023-05-07T09:43:11;7.30;;;7.00;;
3207;SDS011;1616;52.394;9.756;2023-05-07T09:45:38;7.70;;;7.30;;
3207;SDS011;1616;52.394;9.756;2023-05-07T09:48:05;8.80;;;8.40;;
3207;SDS011;1616;52.394;9.756;2023-05-07T09:50:43;10.73;;;9.87;;
3207;SDS011;1616;52.394;9.756;2023-05-07T09:53:13;10.30;;;9.70;;
3207;SDS011;1616;52.394;9.756;2023-05-07T09:55:41;9.17;;;8.47;;
3207;SDS011;1616;52.394;9.756;2023-05-07T09:58:06;10.27;;;9.47;;
3207;SDS011;1616;52.394;9.756;2023-05-07T10:00:34;8.83;;;8.23;;
3207;SDS011;1616;52.394;9.756;2023-05-07T10:03:01;12.47;;;10.23;;
3207;SDS011;1616;52.394;9.756;2023-05-07T10:05:28;11.20;;;10.40;;
3207;SDS011;1616;52.394;9.756;2023-05-07T10:07:54;10.03;;;9.43;;
3207;SDS011;1616;52.394;9.756;2023-05-07T10:10:21;10.27;;;9.57;;
3207;SDS011;1616;52.394;9.756;2023-05-07T10:12:48;9.57;;;8.93;;
3207;SDS011;1616;52.394;9.756;2023-05-07T10:15:15;9.93;;;9.13;;
3207;SDS011;1616;52.394;9.756;2023-05-07T10:17:42;10.57;;;9.97;;
3207;SDS011;1616;52.394;9.756;2023-05-07T10:20:08;11.17;;;10.43;;
3207;SDS011;1616;52.394;9.756;2023-05-07T10:22:44;9.80;;;9.20;;
3207;SDS011;1616;52.394;9.756;2023-05-07T10:25:21;11.27;;;10.50;;
3207;SDS011;1616;52.394;9.756;2023-05-07T10:27:48;10.37;;;9.67;;
3207;SDS011;1616;52.394;9.756;2023-05-07T10:33:15;10.80;;;8.60;;
3207;SDS011;1616;52.394;9.756;2023-05-07T10:35:45;10.00;;;9.30;;
3207;SDS011;1616;52.394;9.756;2023-05-07T10:38:12;8.93;;;8.43;;
3207;SDS011;1616;52.394;9.756;2023-05-07T10:40:39;9.20;;;8.60;;
3207;SDS011;1616;52.394;9.756;2023-05-07T10:43:05;8.70;;;8.13;;
3207;SDS011;1616;52.394;9.756;2023-05-07T10:45:31;9.70;;;9.10;;
3207;SDS011;1616;52.394;9.756;2023-05-07T10:48:10;8.43;;;8.03;;
3207;SDS011;1616;52.394;9.756;2023-05-07T10:50:43;8.47;;;8.00;;
3207;SDS011;1616;52.394;9.756;2023-05-07T10:55:43;10.13;;;8.50;;
3207;SDS011;1616;52.394;9.756;2023-05-07T10:58:22;7.90;;;7.30;;
3207;SDS011;1616;52.394;9.756;2023-05-07T11:00:58;7.63;;;7.30;;
3207;SDS011;1616;52.394;9.756;2023-05-07T11:03:26;7.27;;;6.87;;
3207;SDS011;1616;52.394;9.756;2023-05-07T11:06:11;5.87;;;5.50;;
3207;SDS011;1616;52.394;9.756;2023-05-07T11:14:11;7.50;;;7.00;;
3207;SDS011;1616;52.394;9.756;2023-05-07T11:16:36;5.90;;;5.60;;
3207;SDS011;1616;52.394;9.756;2023-05-07T11:19:03;7.23;;;6.93;;
3207;SDS011;1616;52.394;9.756;2023-05-07T11:21:32;6.83;;;6.53;;
3207;SDS011;1616;52.394;9.756;2023-05-07T11:24:06;8.03;;;7.53;;
3207;SDS011;1616;52.394;9.756;2023-05-07T11:26:47;5.87;;;5.47;;
3207;SDS011;1616;52.394;9.756;2023-05-07T11:29:18;7.07;;;6.67;;
3207;SDS011;1616;52.394;9.756;2023-05-07T11:31:48;6.83;;;6.53;;
3207;SDS011;1616;52.394;9.756;2023-05-07T11:34:23;6.60;;;6.30;;
3207;SDS011;1616;52.394;9.756;2023-05-07T11:36:50;6.47;;;5.90;;
3207;SDS011;1616;52.394;9.756;2023-05-07T11:39:50;6.00;;;5.70;;
3207;SDS011;1616;52.394;9.756;2023-05-07T11:44:53;6.40;;;6.00;;
3207;SDS011;1616;52.394;9.756;2023-05-07T11:47:20;5.70;;;5.50;;
3207;SDS011;1616;52.394;9.756;2023-05-07T11:49:47;7.37;;;7.07;;
3207;SDS011;1616;52.394;9.756;2023-05-07T11:52:13;7.00;;;6.70;;
3207;SDS011;1616;52.394;9.756;2023-05-07T11:54:40;5.90;;;5.70;;
3207;SDS011;1616;52.394;9.756;2023-05-07T11:57:05;5.97;;;5.77;;
3207;SDS011;1616;52.394;9.756;2023-05-07T11:59:41;5.33;;;4.87;;
3207;SDS011;1616;52.394;9.756;2023-05-07T12:02:09;5.20;;;4.90;;
3207;SDS011;1616;52.394;9.756;2023-05-07T12:04:35;5.20;;;5.00;;
3207;SDS011;1616;52.394;9.756;2023-05-07T12:07:02;4.77;;;4.57;;
3207;SDS011;1616;52.394;9.756;2023-05-07T12:09:28;5.23;;;5.03;;
3207;SDS011;1616;52.394;9.756;2023-05-07T12:11:54;5.30;;;5.00;;
3207;SDS011;1616;52.394;9.756;2023-05-07T12:14:21;6.37;;;6.10;;
3207;SDS011;1616;52.394;9.756;2023-05-07T12:16:46;5.30;;;5.10;;
3207;SDS011;1616;52.394;9.756;2023-05-07T12:19:13;4.93;;;4.73;;
3207;SDS011;1616;52.394;9.756;2023-05-07T12:21:39;5.30;;;5.10;;
3207;SDS011;1616;52.394;9.756;2023-05-07T12:24:05;6.10;;;5.90;;
3207;SDS011;1616;52.394;9.756;2023-05-07T12:26:31;5.20;;;5.00;;
3207;SDS011;1616;52.394;9.756;2023-05-07T12:28:57;4.90;;;4.70;;
3207;SDS011;1616;52.394;9.756;2023-05-07T12:31:27;5.03;;;4.63;;
3207;SDS011;1616;52.394;9.756;2023-05-07T12:33:52;4.60;;;4.40;;
3207;SDS011;1616;52.394;9.756;2023-05-07T12:36:18;4.80;;;4.60;;
3207;SDS011;1616;52.394;9.756;2023-05-07T12:38:44;5.00;;;4.60;;
3207;SDS011;1616;52.394;9.756;2023-05-07T12:41:10;4.20;;;4.00;;
3207;SDS011;1616;52.394;9.756;2023-05-07T12:43:37;4.80;;;4.60;;
3207;SDS011;1616;52.394;9.756;2023-05-07T12:46:04;3.50;;;3.30;;
3207;SDS011;1616;52.394;9.756;2023-05-07T12:48:31;4.33;;;4.03;;
3207;SDS011;1616;52.394;9.756;2023-05-07T12:50:58;2.37;;;2.27;;
3207;SDS011;1616;52.394;9.756;2023-05-07T12:53:25;4.00;;;3.80;;
3207;SDS011;1616;52.394;9.756;2023-05-07T12:55:53;3.00;;;2.80;;
3207;SDS011;1616;52.394;9.756;2023-05-07T12:58:24;3.63;;;3.43;;
3207;SDS011;1616;52.394;9.756;2023-05-07T13:00:52;5.00;;;3.53;;
3207;SDS011;1616;52.394;9.756;2023-05-07T13:03:29;3.60;;;3.40;;
3207;SDS011;1616;52.394;9.756;2023-05-07T13:06:02;4.27;;;4.07;;
3207;SDS011;1616;52.394;9.756;2023-05-07T13:08:33;4.93;;;4.43;;
3207;SDS011;1616;52.394;9.756;2023-05-07T13:11:03;4.93;;;4.73;;
3207;SDS011;1616;52.394;9.756;2023-05-07T13:13:33;4.83;;;4.63;;
3207;SDS011;1616;52.394;9.756;2023-05-07T13:16:03;4.90;;;4.70;;
3207;SDS011;1616;52.394;9.756;2023-05-07T13:18:29;3.13;;;2.93;;
3207;SDS011;1616;52.394;9.756;2023-05-07T13:20:56;4.20;;;3.90;;
3207;SDS011;1616;52.394;9.756;2023-05-07T13:23:22;5.17;;;4.97;;
3207;SDS011;1616;52.394;9.756;2023-05-07T13:25:48;4.97;;;4.67;;
3207;SDS011;1616;52.394;9.756;2023-05-07T13:28:14;5.03;;;4.63;;
3207;SDS011;1616;52.394;9.756;2023-05-07T13:30:39;4.13;;;3.83;;
3207;SDS011;1616;52.394;9.756;2023-05-07T13:33:08;5.60;;;5.20;;
3207;SDS011;1616;52.394;9.756;2023-05-07T13:35:34;5.30;;;5.10;;
3207;SDS011;1616;52.394;9.756;2023-05-07T13:38:00;6.03;;;5.80;;
3207;SDS011;1616;52.394;9.756;2023-05-07T13:40:26;6.30;;;6.00;;
3207;SDS011;1616;52.394;9.756;2023-05-07T13:42:52;5.53;;;4.97;;
3207;SDS011;1616;52.394;9.756;2023-05-07T13:45:18;7.50;;;5.10;;
3207;SDS011;1616;52.394;9.756;2023-05-07T13:47:44;5.60;;;5.20;;
3207;SDS011;1616;52.394;9.756;2023-05-07T13:50:11;5.37;;;5.17;;
3207;SDS011;1616;52.394;9.756;2023-05-07T13:52:41;5.60;;;5.20;;
3207;SDS011;1616;52.394;9.756;2023-05-07T13:55:08;4.60;;;4.20;;
3207;SDS011;1616;52.394;9.756;2023-05-07T13:57:38;5.17;;;4.87;;
3207;SDS011;1616;52.394;9.756;2023-05-07T14:00:04;7.37;;;5.50;;
3207;SDS011;1616;52.394;9.756;2023-05-07T14:02:32;5.57;;;5.37;;
3207;SDS011;1616;52.394;9.756;2023-05-07T14:04:57;5.17;;;4.87;;
3207;SDS011;1616;52.394;9.756;2023-05-07T14:07:23;4.50;;;4.30;;
3207;SDS011;1616;52.394;9.756;2023-05-07T14:09:48;6.10;;;5.80;;
3207;SDS011;1616;52.394;9.756;2023-05-07T14:12:14;3.60;;;3.30;;
3207;SDS011;1616;52.394;9.756;2023-05-07T14:14:40;4.50;;;4.20;;
3207;SDS011;1616;52.394;9.756;2023-05-07T14:17:06;5.03;;;3.90;;
3207;SDS011;1616;52.394;9.756;2023-05-07T14:19:33;5.07;;;4.77;;
3207;SDS011;1616;52.394;9.756;2023-05-07T14:21:58;3.93;;;3.73;;
3207;SDS011;1616;52.394;9.756;2023-05-07T14:24:24;5.17;;;4.87;;
3207;SDS011;1616;52.394;9.756;2023-05-07T14:26:51;4.13;;;3.93;;
3207;SDS011;1616;52.394;9.756;2023-05-07T14:29:16;4.40;;;4.20;;
3207;SDS011;1616;52.394;9.756;2023-05-07T14:31:44;10.97;;;4.70;;
3207;SDS011;1616;52.394;9.756;2023-05-07T14:34:10;4.47;;;4.27;;
3207;SDS011;1616;52.394;9.756;2023-05-07T14:36:36;5.40;;;4.83;;
3207;SDS011;1616;52.394;9.756;2023-05-07T14:39:03;4.53;;;4.23;;
3207;SDS011;1616;52.394;9.756;2023-05-07T14:41:29;4.93;;;4.63;;
3207;SDS011;1616;52.394;9.756;2023-05-07T14:43:56;4.30;;;4.10;;
3207;SDS011;1616;52.394;9.756;2023-05-07T14:46:23;5.40;;;5.00;;
3207;SDS011;1616;52.394;9.756;2023-05-07T14:48:50;5.20;;;5.00;;
3207;SDS011;1616;52.394;9.756;2023-05-07T14:51:15;4.60;;;4.40;;
3207;SDS011;1616;52.394;9.756;2023-05-07T14:53:41;5.53;;;4.90;;
3207;SDS011;1616;52.394;9.756;2023-05-07T14:56:08;4.50;;;3.90;;
3207;SDS011;1616;52.394;9.756;2023-05-07T14:58:34;4.90;;;4.70;;
3207;SDS011;1616;52.394;9.756;2023-05-07T15:01:00;4.57;;;4.27;;
3207;SDS011;1616;52.394;9.756;2023-05-07T15:03:26;4.80;;;4.50;;
3207;SDS011;1616;52.394;9.756;2023-05-07T15:05:52;5.23;;;4.93;;
3207;SDS011;1616;52.394;9.756;2023-05-07T15:08:18;5.37;;;4.97;;
3207;SDS011;1616;52.394;9.756;2023-05-07T15:10:44;18.73;;;4.90;;
3207;SDS011;1616;52.394;9.756;2023-05-07T15:13:10;6.30;;;5.77;;
3207;SDS011;1616;52.394;9.756;2023-05-07T15:15:37;5.30;;;5.10;;